createdAt,value
2017-11-25T00:00:11.886Z,91.13
2017-11-25T00:01:15.286Z,91.17
2017-11-25T00:02:17.850Z,91.22
2017-11-25T00:03:20.426Z,91.11
2017-11-25T00:04:23.506Z,90.97
2017-11-25T00:05:26.146Z,91.19
2017-11-25T00:06:28.730Z,91.13
2017-11-25T00:07:31.377Z,91.15
2017-11-25T00:08:34.014Z,91.18
2017-11-25T00:09:36.644Z,91.12
2017-11-25T00:10:39.683Z,91.25
2017-11-25T00:11:42.261Z,91.42
2017-11-25T00:12:44.833Z,91.50
2017-11-25T00:13:47.495Z,91.49
2017-11-25T00:14:50.063Z,91.44
2017-11-25T00:15:52.619Z,91.51
2017-11-25T00:16:55.699Z,91.31
2017-11-25T00:17:58.396Z,91.38
2017-11-25T00:19:01.062Z,91.32
2017-11-25T00:20:03.825Z,91.24
2017-11-25T00:21:06.437Z,91.30
2017-11-25T00:22:09.137Z,91.26
2017-11-25T00:23:12.166Z,91.24
2017-11-25T00:24:14.841Z,91.25
2017-11-25T00:25:17.448Z,91.28
2017-11-25T00:26:19.958Z,91.36
2017-11-25T00:27:22.562Z,91.39
2017-11-25T00:28:26.149Z,91.41
2017-11-25T00:29:30.173Z,91.62
2017-11-25T00:30:32.782Z,91.69
2017-11-25T00:31:35.602Z,91.81
2017-11-25T00:32:38.219Z,91.78
2017-11-25T00:33:40.889Z,91.75
2017-11-25T00:34:43.566Z,91.71
2017-11-25T00:35:46.709Z,91.67
2017-11-25T00:36:49.406Z,91.60
2017-11-25T00:37:52.043Z,91.50
2017-11-25T00:38:54.633Z,91.44
2017-11-25T00:39:57.303Z,91.55
2017-11-25T00:40:59.897Z,91.48
2017-11-25T00:42:02.888Z,91.45
2017-11-25T00:43:05.419Z,91.53
2017-11-25T00:44:08.036Z,91.45
2017-11-25T00:45:10.980Z,91.65
2017-11-25T00:46:13.654Z,91.90
2017-11-25T00:47:16.153Z,92.01
2017-11-25T00:48:19.209Z,92.01
2017-11-25T00:49:21.832Z,92.05
2017-11-25T00:50:24.380Z,91.86
2017-11-25T00:51:26.985Z,91.84
2017-11-25T00:52:29.625Z,91.95
2017-11-25T00:53:32.258Z,91.84
2017-11-25T00:54:35.346Z,91.96
2017-11-25T00:55:37.961Z,91.94
2017-11-25T00:56:40.627Z,91.89
2017-11-25T00:57:43.273Z,91.84
2017-11-25T00:58:45.889Z,91.80
2017-11-25T00:59:48.490Z,91.72
2017-11-25T01:00:51.502Z,91.81
2017-11-25T01:01:54.107Z,91.87
2017-11-25T01:02:56.776Z,91.85
2017-11-25T01:03:59.393Z,91.73
2017-11-25T01:05:02.058Z,92.10
2017-11-25T01:06:04.802Z,92.08
2017-11-25T01:07:07.878Z,92.10
2017-11-25T01:08:10.482Z,91.92
2017-11-25T01:09:13.081Z,91.93
2017-11-25T01:10:15.696Z,91.97
2017-11-25T01:11:18.345Z,92.03
2017-11-25T01:12:20.953Z,92.23
2017-11-25T01:13:23.980Z,92.39
2017-11-25T01:14:26.605Z,92.53
2017-11-25T01:15:29.272Z,92.58
2017-11-25T01:16:31.888Z,92.54
2017-11-25T01:17:34.594Z,92.46
2017-11-25T01:18:37.253Z,92.44
2017-11-25T01:19:40.344Z,92.39
2017-11-25T01:20:42.966Z,92.29
2017-11-25T01:21:45.604Z,92.33
2017-11-25T01:22:48.234Z,92.22
2017-11-25T01:23:50.920Z,92.22
2017-11-25T01:24:53.512Z,92.16
2017-11-25T01:25:56.554Z,92.07
2017-11-25T01:26:59.140Z,92.11
2017-11-25T01:28:01.874Z,92.01
2017-11-25T01:29:04.469Z,91.95
2017-11-25T01:30:07.112Z,91.99
2017-11-25T01:31:09.733Z,92.15
2017-11-25T01:32:12.810Z,92.29
2017-11-25T01:33:15.446Z,92.26
2017-11-25T01:34:18.132Z,92.23
2017-11-25T01:35:20.725Z,91.88
2017-11-25T01:36:23.356Z,92.47
2017-11-25T01:37:26.036Z,92.56
2017-11-25T01:38:29.034Z,92.79
2017-11-25T01:39:32.415Z,93.09
2017-11-25T01:40:35.029Z,93.03
2017-11-25T01:41:37.711Z,92.90
2017-11-25T01:42:40.320Z,92.86
2017-11-25T01:43:43.223Z,92.83
2017-11-25T01:44:46.288Z,92.64
2017-11-25T01:45:48.931Z,92.65
2017-11-25T01:46:51.498Z,92.70
2017-11-25T01:47:54.127Z,92.75
2017-11-25T01:48:56.674Z,92.73
2017-11-25T01:49:59.365Z,92.75
2017-11-25T01:51:02.607Z,93.03
2017-11-25T01:52:05.310Z,93.33
2017-11-25T01:53:08.052Z,93.10
2017-11-25T01:54:10.657Z,93.08
2017-11-25T01:55:13.910Z,93.13
2017-11-25T01:56:16.621Z,93.37
2017-11-25T01:57:19.650Z,93.25
2017-11-25T01:58:22.440Z,93.30
2017-11-25T01:59:25.242Z,93.24
2017-11-25T02:00:27.866Z,93.14
2017-11-25T02:01:30.575Z,92.83
2017-11-25T02:02:33.162Z,92.99
2017-11-25T02:03:36.081Z,93.14
2017-11-25T02:04:38.729Z,92.70
2017-11-25T02:05:41.430Z,92.55
2017-11-25T02:06:44.064Z,92.81
2017-11-25T02:07:46.684Z,92.53
2017-11-25T02:08:49.280Z,92.64
2017-11-25T02:09:52.374Z,92.36
2017-11-25T02:10:54.985Z,92.31
2017-11-25T02:11:57.649Z,92.60
2017-11-25T02:13:00.341Z,92.54
2017-11-25T02:14:03.013Z,92.58
2017-11-25T02:15:05.641Z,92.63
2017-11-25T02:16:08.653Z,92.57
2017-11-25T02:17:11.292Z,92.88
2017-11-25T02:18:13.917Z,93.00
2017-11-25T02:19:16.553Z,93.07
2017-11-25T02:20:19.083Z,93.07
2017-11-25T02:21:21.638Z,93.09
2017-11-25T02:22:24.642Z,93.03
2017-11-25T02:23:27.282Z,92.79
2017-11-25T02:24:29.873Z,93.01
2017-11-25T02:25:32.543Z,93.04
2017-11-25T02:26:35.443Z,92.10
2017-11-25T02:27:38.066Z,92.15
2017-11-25T02:28:41.142Z,91.97
2017-11-25T02:29:43.781Z,91.98
2017-11-25T02:30:46.460Z,92.33
2017-11-25T02:31:49.115Z,92.45
2017-11-25T02:32:51.758Z,92.69
2017-11-25T02:33:54.406Z,92.61
2017-11-25T02:34:57.462Z,92.11
2017-11-25T02:36:00.037Z,91.73
2017-11-25T02:37:02.735Z,92.01
2017-11-25T02:38:05.371Z,92.00
2017-11-25T02:39:08.019Z,91.77
2017-11-25T02:40:10.630Z,91.63
2017-11-25T02:41:13.750Z,91.78
2017-11-25T02:42:16.370Z,91.43
2017-11-25T02:43:19.033Z,91.40
2017-11-25T02:44:21.657Z,91.39
2017-11-25T02:45:24.267Z,91.42
2017-11-25T02:46:26.877Z,91.36
2017-11-25T02:47:29.951Z,91.45
2017-11-25T02:48:32.572Z,91.55
2017-11-25T02:49:35.230Z,91.49
2017-11-25T02:50:37.876Z,91.08
2017-11-25T02:51:40.505Z,91.12
2017-11-25T02:52:43.122Z,91.25
2017-11-25T02:53:46.149Z,91.37
2017-11-25T02:54:48.762Z,91.52
2017-11-25T02:55:51.421Z,91.38
2017-11-25T02:56:54.072Z,91.33
2017-11-25T02:57:57.140Z,91.16
2017-11-25T02:58:59.774Z,91.25
2017-11-25T03:00:03.032Z,91.19
2017-11-25T03:01:05.672Z,90.99
2017-11-25T03:02:08.319Z,91.18
2017-11-25T03:03:10.945Z,91.35
2017-11-25T03:04:13.589Z,91.43
2017-11-25T03:05:16.221Z,91.50
2017-11-25T03:06:19.190Z,91.45
2017-11-25T03:07:21.816Z,91.43
2017-11-25T03:08:24.576Z,91.28
2017-11-25T03:09:27.229Z,91.15
2017-11-25T03:10:29.797Z,91.27
2017-11-25T03:11:32.351Z,91.74
2017-11-25T03:12:35.291Z,91.91
2017-11-25T03:13:37.894Z,92.45
2017-11-25T03:14:40.504Z,92.43
2017-11-25T03:15:43.019Z,93.12
2017-11-25T03:16:45.684Z,93.35
2017-11-25T03:17:48.288Z,93.66
2017-11-25T03:18:51.484Z,93.45
2017-11-25T03:19:54.112Z,93.45
2017-11-25T03:20:56.761Z,93.49
2017-11-25T03:21:59.398Z,94.10
2017-11-25T03:23:02.300Z,94.27
2017-11-25T03:24:04.990Z,93.74
2017-11-25T03:25:08.081Z,94.19
2017-11-25T03:26:10.706Z,94.44
2017-11-25T03:27:13.363Z,94.43
2017-11-25T03:28:16.048Z,94.18
2017-11-25T03:29:18.678Z,93.72
2017-11-25T03:30:21.657Z,93.81
2017-11-25T03:31:24.675Z,93.59
2017-11-25T03:32:27.295Z,93.58
2017-11-25T03:33:29.911Z,93.42
2017-11-25T03:34:32.524Z,93.16
2017-11-25T03:35:35.199Z,92.94
2017-11-25T03:36:37.840Z,92.95
2017-11-25T03:37:40.960Z,92.79
2017-11-25T03:38:43.610Z,92.90
2017-11-25T03:39:46.290Z,92.97
2017-11-25T03:40:49.060Z,92.98
2017-11-25T03:41:51.777Z,93.02
2017-11-25T03:42:54.391Z,92.69
2017-11-25T03:43:57.396Z,92.96
2017-11-25T03:45:00.055Z,92.89
2017-11-25T03:46:02.686Z,92.84
2017-11-25T03:47:05.324Z,92.52
2017-11-25T03:48:07.932Z,92.28
2017-11-25T03:49:10.610Z,92.25
2017-11-25T03:50:13.610Z,92.37
2017-11-25T03:51:16.422Z,92.33
2017-11-25T03:52:20.503Z,91.96
2017-11-25T03:53:23.190Z,92.04
2017-11-25T03:54:25.902Z,91.99
2017-11-25T03:55:28.513Z,92.20
2017-11-25T03:56:31.491Z,92.16
2017-11-25T03:57:34.021Z,92.15
2017-11-25T03:58:36.571Z,92.41
2017-11-25T03:59:39.186Z,92.50
2017-11-25T04:00:41.830Z,92.38
2017-11-25T04:01:44.479Z,92.26
2017-11-25T04:02:47.173Z,92.39
2017-11-25T04:03:49.796Z,92.24
2017-11-25T04:04:52.442Z,92.24
2017-11-25T04:05:55.091Z,92.61
2017-11-25T04:06:57.776Z,92.90
2017-11-25T04:08:00.463Z,92.94
2017-11-25T04:09:03.160Z,92.43
2017-11-25T04:10:05.794Z,92.32
2017-11-25T04:11:08.454Z,92.48
2017-11-25T04:12:11.916Z,92.62
2017-11-25T04:13:15.280Z,91.87
2017-11-25T04:14:18.418Z,91.87
2017-11-25T04:15:21.074Z,92.39
2017-11-25T04:16:23.629Z,92.77
2017-11-25T04:17:26.267Z,92.87
2017-11-25T04:18:31.297Z,92.67
2017-11-25T04:19:34.257Z,92.98
2017-11-25T04:20:37.496Z,93.26
2017-11-25T04:21:40.469Z,93.68
2017-11-25T04:22:43.356Z,92.46
2017-11-25T04:23:46.078Z,92.59
2017-11-25T04:24:48.734Z,93.34
2017-11-25T04:25:51.811Z,93.31
2017-11-25T04:26:54.488Z,92.82
2017-11-25T04:27:57.091Z,92.60
2017-11-25T04:28:59.749Z,92.65
2017-11-25T04:30:02.398Z,92.62
2017-11-25T04:31:05.055Z,92.33
2017-11-25T04:32:08.068Z,91.90
2017-11-25T04:33:10.718Z,91.84
2017-11-25T04:34:13.375Z,91.84
2017-11-25T04:35:16.014Z,92.24
2017-11-25T04:36:18.687Z,91.93
2017-11-25T04:37:21.307Z,91.77
2017-11-25T04:38:24.260Z,91.71
2017-11-25T04:39:26.949Z,92.03
2017-11-25T04:40:29.582Z,92.07
2017-11-25T04:41:32.214Z,92.50
2017-11-25T04:42:34.855Z,92.34
2017-11-25T04:43:37.533Z,92.03
2017-11-25T04:44:40.661Z,92.04
2017-11-25T04:45:43.301Z,92.17
2017-11-25T04:46:45.911Z,91.85
2017-11-25T04:47:48.608Z,92.10
2017-11-25T04:48:51.225Z,92.21
2017-11-25T04:49:53.910Z,92.63
2017-11-25T04:50:56.946Z,92.30
2017-11-25T04:51:59.659Z,92.80
2017-11-25T04:53:02.376Z,92.87
2017-11-25T04:54:05.038Z,92.59
2017-11-25T04:55:07.760Z,92.79
2017-11-25T04:56:10.404Z,92.90
2017-11-25T04:57:13.493Z,92.69
2017-11-25T04:58:16.174Z,92.61
2017-11-25T04:59:18.827Z,91.87
2017-11-25T05:15:11.217Z,90.95
2017-11-25T05:16:13.993Z,90.51
2017-11-25T05:17:16.684Z,90.38
2017-11-25T05:18:19.347Z,90.39
2017-11-25T05:19:22.004Z,90.29
2017-11-25T05:20:25.145Z,90.26
2017-11-25T05:21:27.803Z,89.85
2017-11-25T05:22:30.492Z,89.85
2017-11-25T05:23:33.222Z,89.49
2017-11-25T05:24:35.861Z,89.74
2017-11-25T05:25:38.514Z,89.65
2017-11-25T05:26:41.661Z,89.70
2017-11-25T05:27:44.313Z,89.73
2017-11-25T05:28:46.904Z,89.54
2017-11-25T05:29:49.604Z,89.33
2017-11-25T05:30:52.234Z,89.45
2017-11-25T05:31:54.985Z,89.58
2017-11-25T05:32:57.926Z,89.62
2017-11-25T05:34:00.488Z,89.47
2017-11-25T05:35:03.087Z,89.53
2017-11-25T05:36:05.747Z,89.57
2017-11-25T05:37:08.382Z,89.42
2017-11-25T05:38:11.180Z,89.31
2017-11-25T05:39:14.242Z,89.29
2017-11-25T05:40:16.888Z,89.20
2017-11-25T05:41:19.656Z,89.10
2017-11-25T05:42:22.457Z,89.11
2017-11-25T05:43:25.243Z,89.13
2017-11-25T05:44:27.890Z,89.19
2017-11-25T05:45:30.918Z,89.25
2017-11-25T05:46:33.591Z,89.12
2017-11-25T05:47:36.215Z,89.63
2017-11-25T05:48:39.192Z,89.38
2017-11-25T05:49:41.859Z,89.57
2017-11-25T05:50:44.501Z,89.42
2017-11-25T05:51:47.534Z,89.36
2017-11-25T05:52:50.191Z,88.56
2017-11-25T05:53:52.771Z,89.01
2017-11-25T05:54:55.342Z,88.54
2017-11-25T05:55:58.009Z,88.51
2017-11-25T05:57:00.697Z,88.60
2017-11-25T05:58:03.635Z,88.50
2017-11-25T05:59:06.248Z,88.59
2017-11-25T06:00:08.892Z,88.76
2017-11-25T06:01:11.522Z,88.62
2017-11-25T06:02:14.180Z,88.62
2017-11-25T06:03:16.856Z,88.41
2017-11-25T06:04:19.746Z,88.83
2017-11-25T06:05:22.496Z,88.76
2017-11-25T06:06:25.157Z,88.83
2017-11-25T06:07:27.782Z,88.56
2017-11-25T06:08:30.437Z,88.48
2017-11-25T06:09:33.058Z,88.71
2017-11-25T06:10:35.977Z,88.62
2017-11-25T06:11:38.667Z,88.67
2017-11-25T06:12:41.309Z,88.49
2017-11-25T06:13:43.966Z,88.69
2017-11-25T06:14:46.633Z,88.61
2017-11-25T06:15:49.522Z,88.60
2017-11-25T06:16:52.496Z,88.68
2017-11-25T06:17:55.206Z,88.71
2017-11-25T06:18:57.897Z,88.55
2017-11-25T06:20:00.569Z,88.71
2017-11-25T06:21:03.213Z,88.54
2017-11-25T06:22:05.891Z,87.92
2017-11-25T06:23:08.802Z,88.04
2017-11-25T06:24:11.442Z,88.13
2017-11-25T06:25:14.090Z,88.20
2017-11-25T06:26:16.884Z,88.05
2017-11-25T06:27:19.556Z,87.73
2017-11-25T06:28:22.261Z,87.83
2017-11-25T06:29:25.197Z,87.98
2017-11-25T06:30:27.962Z,87.88
2017-11-25T06:31:30.677Z,87.73
2017-11-25T06:32:33.298Z,87.78
2017-11-25T06:33:35.985Z,87.84
2017-11-25T06:34:38.755Z,88.11
2017-11-25T06:35:41.807Z,88.11
2017-11-25T06:36:44.443Z,88.00
2017-11-25T06:37:47.235Z,87.56
2017-11-25T06:38:49.855Z,87.65
2017-11-25T06:39:52.533Z,87.64
2017-11-25T06:40:55.212Z,87.63
2017-11-25T06:41:58.350Z,87.66
2017-11-25T06:43:00.988Z,87.54
2017-11-25T06:44:03.909Z,87.40
2017-11-25T06:45:06.591Z,87.48
2017-11-25T06:46:09.316Z,87.60
2017-11-25T06:47:12.042Z,87.47
2017-11-25T06:48:15.006Z,87.22
2017-11-25T06:49:17.674Z,87.28
2017-11-25T06:50:20.386Z,87.89
2017-11-25T06:51:23.030Z,87.79
2017-11-25T06:52:25.699Z,87.76
2017-11-25T06:53:28.359Z,87.81
2017-11-25T06:54:31.284Z,87.92
2017-11-25T06:55:33.915Z,88.11
2017-11-25T06:56:36.626Z,88.33
2017-11-25T06:57:39.259Z,88.38
2017-11-25T06:58:41.985Z,88.53
2017-11-25T06:59:44.636Z,88.70
2017-11-25T07:00:47.728Z,88.80
2017-11-25T07:01:50.405Z,88.88
2017-11-25T07:02:53.118Z,88.56
2017-11-25T07:03:55.859Z,88.70
2017-11-25T07:04:58.587Z,88.76
2017-11-25T07:06:01.242Z,88.65
2017-11-25T07:07:04.204Z,88.48
2017-11-25T07:08:06.876Z,88.53
2017-11-25T07:09:09.538Z,88.67
2017-11-25T07:10:12.159Z,88.55
2017-11-25T07:11:14.776Z,87.86
2017-11-25T07:12:17.427Z,88.37
2017-11-25T07:13:20.522Z,88.49
2017-11-25T07:14:23.311Z,88.64
2017-11-25T07:15:25.948Z,88.84
2017-11-25T07:16:28.606Z,88.85
2017-11-25T07:17:31.129Z,88.85
2017-11-25T07:18:33.671Z,88.88
2017-11-25T07:19:36.545Z,88.98
2017-11-25T07:20:39.084Z,89.03
2017-11-25T07:21:41.622Z,88.85
2017-11-25T07:22:44.241Z,89.08
2017-11-25T07:23:46.848Z,89.24
2017-11-25T07:24:49.452Z,89.00
2017-11-25T07:25:52.403Z,89.01
2017-11-25T07:26:55.011Z,89.13
2017-11-25T07:27:57.678Z,88.95
2017-11-25T07:29:00.324Z,88.98
2017-11-25T07:30:03.011Z,89.02
2017-11-25T07:31:05.643Z,89.06
2017-11-25T07:32:08.754Z,88.90
2017-11-25T07:33:11.410Z,89.02
2017-11-25T07:34:14.047Z,88.95
2017-11-25T07:35:16.719Z,88.90
2017-11-25T07:36:19.371Z,88.67
2017-11-25T07:37:22.064Z,88.53
2017-11-25T07:38:24.990Z,88.25
2017-11-25T07:39:27.652Z,88.43
2017-11-25T07:40:30.245Z,88.17
2017-11-25T07:41:32.814Z,88.35
2017-11-25T07:42:35.519Z,87.89
2017-11-25T07:43:38.208Z,87.49
2017-11-25T07:44:41.155Z,87.70
2017-11-25T07:45:43.813Z,87.55
2017-11-25T07:46:46.444Z,87.44
2017-11-25T07:47:49.118Z,87.55
2017-11-25T07:48:51.739Z,87.70
2017-11-25T07:49:54.410Z,87.73
2017-11-25T07:50:57.399Z,87.35
2017-11-25T07:52:00.089Z,87.42
2017-11-25T07:53:02.796Z,87.22
2017-11-25T07:54:05.517Z,87.42
2017-11-25T07:55:08.153Z,87.21
2017-11-25T07:56:10.804Z,87.23
2017-11-25T07:57:13.822Z,87.39
2017-11-25T07:58:16.509Z,87.13
2017-11-25T07:59:19.134Z,86.86
2017-11-25T08:00:21.886Z,86.88
2017-11-25T08:01:24.615Z,87.06
2017-11-25T08:02:27.273Z,87.19
2017-11-25T08:03:30.584Z,86.98
2017-11-25T08:04:33.351Z,86.73
2017-11-25T08:05:36.068Z,86.91
2017-11-25T08:06:39.335Z,86.73
2017-11-25T08:07:42.048Z,86.53
2017-11-25T08:08:44.815Z,86.29
2017-11-25T08:09:47.896Z,86.60
2017-11-25T08:10:50.512Z,86.65
2017-11-25T08:11:53.217Z,86.80
2017-11-25T08:12:55.842Z,86.96
2017-11-25T08:13:58.532Z,86.92
2017-11-25T08:15:01.192Z,86.88
2017-11-25T08:16:04.141Z,87.20
2017-11-25T08:17:06.901Z,87.21
2017-11-25T08:18:09.518Z,87.21
2017-11-25T08:19:12.242Z,86.95
2017-11-25T08:20:14.914Z,86.82
2017-11-25T08:21:17.554Z,86.76
2017-11-25T08:22:21.095Z,86.70
2017-11-25T08:23:23.771Z,86.61
2017-11-25T08:24:26.426Z,86.39
2017-11-25T08:25:29.357Z,86.35
2017-11-25T08:26:31.979Z,86.51
2017-11-25T08:27:34.674Z,87.09
2017-11-25T08:28:37.752Z,87.10
2017-11-25T08:29:40.481Z,87.28
2017-11-25T08:30:43.133Z,87.40
2017-11-25T08:31:46.698Z,87.64
2017-11-25T08:32:49.440Z,87.59
2017-11-25T08:33:52.208Z,87.70
2017-11-25T08:34:55.217Z,87.88
2017-11-25T08:35:57.897Z,87.67
2017-11-25T08:37:00.582Z,87.61
2017-11-25T08:38:03.268Z,87.56
2017-11-25T08:39:05.881Z,87.02
2017-11-25T08:40:08.530Z,87.34
2017-11-25T08:41:11.697Z,87.75
2017-11-25T08:42:14.354Z,87.89
2017-11-25T08:43:17.112Z,87.77
2017-11-25T08:44:19.774Z,87.57
2017-11-25T08:45:22.494Z,87.59
2017-11-25T08:46:25.124Z,87.67
2017-11-25T08:47:28.044Z,87.62
2017-11-25T08:48:30.742Z,87.51
2017-11-25T08:49:33.389Z,87.30
2017-11-25T08:50:36.022Z,87.38
2017-11-25T08:51:38.774Z,87.15
2017-11-25T08:52:41.359Z,87.32
2017-11-25T08:53:44.317Z,87.33
2017-11-25T08:54:46.928Z,87.40
2017-11-25T08:55:49.527Z,87.40
2017-11-25T08:56:52.133Z,87.67
2017-11-25T08:57:54.844Z,87.48
2017-11-25T08:58:57.546Z,87.40
2017-11-25T09:00:00.599Z,86.83
2017-11-25T09:01:03.300Z,87.05
2017-11-25T09:02:05.992Z,86.89
2017-11-25T09:03:08.642Z,86.86
2017-11-25T09:04:11.349Z,86.93
2017-11-25T09:05:13.985Z,86.70
2017-11-25T09:06:17.089Z,86.89
2017-11-25T09:07:19.800Z,86.62
2017-11-25T09:08:22.566Z,86.87
2017-11-25T09:09:25.328Z,86.65
2017-11-25T09:10:27.977Z,86.21
2017-11-25T09:11:30.557Z,86.91
2017-11-25T09:12:33.456Z,86.68
2017-11-25T09:13:36.154Z,86.51
2017-11-25T09:14:38.783Z,86.54
2017-11-25T09:15:41.431Z,86.43
2017-11-25T09:16:44.112Z,86.88
2017-11-25T09:17:46.769Z,86.97
2017-11-25T09:18:49.920Z,86.51
2017-11-25T09:19:52.575Z,86.44
2017-11-25T09:20:55.288Z,86.67
2017-11-25T09:21:57.924Z,86.58
2017-11-25T09:23:00.652Z,86.57
2017-11-25T09:24:03.312Z,86.37
2017-11-25T09:25:06.392Z,86.09
2017-11-25T09:26:09.189Z,86.06
2017-11-25T09:27:11.966Z,85.91
2017-11-25T09:28:14.656Z,85.81
2017-11-25T09:29:17.303Z,85.69
2017-11-25T09:30:20.052Z,85.81
2017-11-25T09:31:23.203Z,85.51
2017-11-25T09:32:25.894Z,85.60
2017-11-25T09:33:28.532Z,85.41
2017-11-25T09:34:31.234Z,85.48
2017-11-25T09:35:33.874Z,85.35
2017-11-25T09:36:36.575Z,85.11
2017-11-25T09:37:39.567Z,84.61
2017-11-25T09:38:42.303Z,84.49
2017-11-25T09:39:44.958Z,84.66
2017-11-25T09:40:47.661Z,84.30
2017-11-25T09:41:50.256Z,84.01
2017-11-25T09:42:52.986Z,83.65
2017-11-25T09:43:55.919Z,83.61
2017-11-25T09:44:58.550Z,83.84
2017-11-25T09:46:01.141Z,83.82
2017-11-25T09:47:03.889Z,84.58
2017-11-25T09:48:06.419Z,83.94
2017-11-25T09:49:08.973Z,83.39
2017-11-25T09:50:11.969Z,83.65
2017-11-25T09:51:14.489Z,83.65
2017-11-25T09:52:17.068Z,83.70
2017-11-25T09:53:19.678Z,82.77
2017-11-25T09:54:22.340Z,83.06
2017-11-25T09:55:25.152Z,82.98
2017-11-25T09:56:28.116Z,83.43
2017-11-25T09:57:30.859Z,83.30
2017-11-25T09:58:33.503Z,82.98
2017-11-25T09:59:36.287Z,82.85
2017-11-25T10:00:39.103Z,84.69
2017-11-25T10:01:41.889Z,83.73
2017-11-25T10:02:45.033Z,83.69
2017-11-25T10:03:48.468Z,83.68
2017-11-25T10:04:51.168Z,83.54
2017-11-25T10:05:53.906Z,83.23
2017-11-25T10:06:56.659Z,83.70
2017-11-25T10:07:59.479Z,83.45
2017-11-25T10:09:02.627Z,83.23
2017-11-25T10:10:05.383Z,82.60
2017-11-25T10:11:08.059Z,82.07
2017-11-25T10:12:10.709Z,82.61
2017-11-25T10:13:13.464Z,83.03
2017-11-25T10:14:16.331Z,82.73
2017-11-25T10:15:19.447Z,82.80
2017-11-25T10:16:22.119Z,82.89
2017-11-25T10:17:24.858Z,83.17
2017-11-25T10:18:27.470Z,82.91
2017-11-25T10:19:30.140Z,83.41
2017-11-25T10:20:32.813Z,83.62
2017-11-25T10:21:35.735Z,83.51
2017-11-25T10:22:38.396Z,83.71
2017-11-25T10:23:40.995Z,83.24
2017-11-25T10:24:43.672Z,82.95
2017-11-25T10:25:46.291Z,82.30
2017-11-25T10:26:49.202Z,82.00
2017-11-25T10:27:52.142Z,81.60
2017-11-25T10:28:54.869Z,81.46
2017-11-25T10:29:57.697Z,81.42
2017-11-25T10:31:00.429Z,81.41
2017-11-25T10:32:03.138Z,81.75
2017-11-25T10:33:05.917Z,81.41
2017-11-25T10:34:08.948Z,80.97
2017-11-25T10:35:11.660Z,80.70
2017-11-25T10:36:14.294Z,80.36
2017-11-25T10:37:17.159Z,80.27
2017-11-25T10:38:19.848Z,80.28
2017-11-25T10:39:22.510Z,80.31
2017-11-25T10:40:25.478Z,80.74
2017-11-25T10:41:28.145Z,80.76
2017-11-25T10:42:30.832Z,80.81
2017-11-25T10:43:33.446Z,80.85
2017-11-25T10:44:36.173Z,81.22
2017-11-25T10:45:38.959Z,80.76
2017-11-25T10:46:42.093Z,80.48
2017-11-25T10:47:44.715Z,80.57
2017-11-25T10:48:47.331Z,80.90
2017-11-25T10:49:50.119Z,81.55
2017-11-25T10:50:52.868Z,81.46
2017-11-25T10:51:55.513Z,81.61
2017-11-25T10:52:59.018Z,81.52
2017-11-25T10:54:01.721Z,81.99
2017-11-25T10:55:04.514Z,81.46
2017-11-25T10:56:07.281Z,81.62
2017-11-25T10:57:10.021Z,81.37
2017-11-25T10:58:12.729Z,82.11
2017-11-25T10:59:15.775Z,82.18
2017-11-25T11:15:31.935Z,80.38
2017-11-25T11:16:34.630Z,80.36
2017-11-25T11:17:37.300Z,80.40
2017-11-25T11:18:40.433Z,80.47
2017-11-25T11:19:43.380Z,80.36
2017-11-25T11:20:46.215Z,80.10
2017-11-25T11:21:48.890Z,79.98
2017-11-25T11:22:51.597Z,80.72
2017-11-25T11:23:54.799Z,80.47
2017-11-25T11:24:57.465Z,80.50
2017-11-25T11:26:00.376Z,80.40
2017-11-25T11:27:03.184Z,80.31
2017-11-25T11:28:06.070Z,80.06
2017-11-25T11:29:08.853Z,80.24
2017-11-25T11:30:11.619Z,80.04
2017-11-25T11:31:14.775Z,79.66
2017-11-25T11:32:17.755Z,80.50
2017-11-25T11:33:20.497Z,80.68
2017-11-25T11:34:23.203Z,80.67
2017-11-25T11:35:25.836Z,80.50
2017-11-25T11:36:28.499Z,79.67
2017-11-25T11:37:31.337Z,80.37
2017-11-25T11:38:34.009Z,79.85
2017-11-25T11:39:36.935Z,79.50
2017-11-25T11:40:39.608Z,79.80
2017-11-25T11:41:42.322Z,80.30
2017-11-25T11:42:45.174Z,79.68
2017-11-25T11:43:48.291Z,79.61
2017-11-25T11:44:51.010Z,79.60
2017-11-25T11:45:53.705Z,79.82
2017-11-25T11:46:56.543Z,79.48
2017-11-25T11:47:59.271Z,79.36
2017-11-25T11:49:02.448Z,79.31
2017-11-25T11:50:05.543Z,79.73
2017-11-25T11:51:09.460Z,79.59
2017-11-25T11:52:12.123Z,79.75
2017-11-25T11:53:15.306Z,79.81
2017-11-25T11:54:18.071Z,80.14
2017-11-25T11:55:20.961Z,79.75
2017-11-25T11:56:24.005Z,80.16
2017-11-25T11:57:26.751Z,80.19
2017-11-25T11:58:29.388Z,79.94
2017-11-25T11:59:32.059Z,79.92
2017-11-25T12:00:35.037Z,80.29
2017-11-25T12:01:38.071Z,80.58
2017-11-25T12:02:41.282Z,80.71
2017-11-25T12:03:44.008Z,81.06
2017-11-25T12:04:46.663Z,80.20
2017-11-25T12:05:49.677Z,80.24
2017-11-25T12:06:52.347Z,80.77
2017-11-25T12:07:55.135Z,80.78
2017-11-25T12:08:58.324Z,81.22
2017-11-25T12:10:01.102Z,81.64
2017-11-25T12:11:04.220Z,82.09
2017-11-25T12:12:07.240Z,82.66
2017-11-25T12:13:10.007Z,82.30
2017-11-25T12:14:12.805Z,82.34
2017-11-25T12:15:15.958Z,82.61
2017-11-25T12:16:18.641Z,82.51
2017-11-25T12:17:21.423Z,82.84
2017-11-25T12:18:24.417Z,82.62
2017-11-25T12:19:27.103Z,82.96
2017-11-25T12:20:29.865Z,83.16
2017-11-25T12:21:32.929Z,83.27
2017-11-25T12:22:35.643Z,82.72
2017-11-25T12:23:38.379Z,82.64
2017-11-25T12:24:41.170Z,82.87
2017-11-25T12:25:43.848Z,83.99
2017-11-25T12:26:46.712Z,84.16
2017-11-25T12:27:51.361Z,84.52
2017-11-25T12:28:54.215Z,84.39
2017-11-25T12:29:56.953Z,84.89
2017-11-25T12:30:59.644Z,84.92
2017-11-25T12:32:02.326Z,85.07
2017-11-25T12:33:05.018Z,85.62
2017-11-25T12:34:08.045Z,85.25
2017-11-25T12:35:10.782Z,85.90
2017-11-25T12:36:13.519Z,84.98
2017-11-25T12:37:16.193Z,85.66
2017-11-25T12:38:18.844Z,85.80
2017-11-25T12:39:21.517Z,86.76
2017-11-25T12:40:24.466Z,87.49
2017-11-25T12:41:27.181Z,87.51
2017-11-25T12:42:29.859Z,87.03
2017-11-25T12:43:32.798Z,87.18
2017-11-25T12:44:35.703Z,87.46
2017-11-25T12:45:38.432Z,87.62
2017-11-25T12:46:41.592Z,86.98
2017-11-25T12:47:44.221Z,87.34
2017-11-25T12:48:46.999Z,87.36
2017-11-25T12:49:49.888Z,85.48
2017-11-25T12:50:52.525Z,86.22
2017-11-25T12:51:55.346Z,86.35
2017-11-25T12:52:58.312Z,86.75
2017-11-25T12:54:01.885Z,86.25
2017-11-25T12:55:04.556Z,86.00
2017-11-25T12:56:07.336Z,85.77
2017-11-25T12:57:10.074Z,85.69
2017-11-25T12:58:12.712Z,85.68
2017-11-25T12:59:15.884Z,85.64
2017-11-25T13:00:18.524Z,85.50
2017-11-25T13:01:21.169Z,85.77
2017-11-25T13:02:23.794Z,85.66
2017-11-25T13:03:26.488Z,85.28
2017-11-25T13:04:29.143Z,85.31
2017-11-25T13:05:32.135Z,85.44
2017-11-25T13:06:34.820Z,85.93
2017-11-25T13:07:37.464Z,85.74
2017-11-25T13:08:40.133Z,85.81
2017-11-25T13:09:42.846Z,85.58
2017-11-25T13:10:45.481Z,85.22
2017-11-25T13:11:48.457Z,85.30
2017-11-25T13:12:51.147Z,85.13
2017-11-25T13:13:53.870Z,85.49
2017-11-25T13:14:56.535Z,85.63
2017-11-25T13:15:59.234Z,85.60
2017-11-25T13:17:01.923Z,85.16
2017-11-25T13:18:05.011Z,84.95
2017-11-25T13:19:07.679Z,85.32
2017-11-25T13:20:10.899Z,85.39
2017-11-25T13:21:13.565Z,85.46
2017-11-25T13:22:16.221Z,86.02
2017-11-25T13:23:18.841Z,86.43
2017-11-25T13:24:21.766Z,86.69
2017-11-25T13:25:24.451Z,87.14
2017-11-25T13:26:27.107Z,87.17
2017-11-25T13:27:29.659Z,87.24
2017-11-25T13:28:32.311Z,86.97
2017-11-25T13:29:34.943Z,86.71
2017-11-25T13:30:37.908Z,86.83
2017-11-25T13:31:40.595Z,86.18
2017-11-25T13:32:43.237Z,87.33
2017-11-25T13:33:45.932Z,87.07
2017-11-25T13:34:48.601Z,87.56
2017-11-25T13:35:51.297Z,87.51
2017-11-25T13:36:53.943Z,86.39
2017-11-25T13:37:57.326Z,86.16
2017-11-25T13:38:59.965Z,86.70
2017-11-25T13:40:02.679Z,86.84
2017-11-25T13:41:05.368Z,86.01
2017-11-25T13:42:08.090Z,86.06
2017-11-25T13:43:11.155Z,86.85
2017-11-25T13:44:13.931Z,87.38
2017-11-25T13:45:16.622Z,86.85
2017-11-25T13:46:19.946Z,87.02
2017-11-25T13:47:22.655Z,86.89
2017-11-25T13:48:25.419Z,86.84
2017-11-25T13:49:28.472Z,86.78
2017-11-25T13:50:31.133Z,86.55
2017-11-25T13:51:33.883Z,87.33
2017-11-25T13:52:36.593Z,87.29
2017-11-25T13:53:39.459Z,87.20
2017-11-25T13:54:42.127Z,86.75
2017-11-25T13:55:45.334Z,85.95
2017-11-25T13:56:48.149Z,86.11
2017-11-25T13:57:50.920Z,85.35